BAW33CX EBBR-EGLL
Flight info
| Callsign | BAW33CX |
|---|---|
| Flight time | 0h 41m |
| Altitude | 22000 |
| Route | HELEN L179 COA L608 LOGAN |
| Aircraft | A21N/M-SDE2E3FGHIRWXY/LB1 |
Departure
| Time | 2026-05-05 13:24 |
|---|---|
| Airport | Brussels Airport (EBBR) |
Arrival
| Time | 2026-05-05 14:05 |
|---|---|
| Airport | London Heathrow Airport (EGLL) |
| Time | Latitude | Longitude | Altitude | Speed | Heading |
|---|---|---|---|---|---|
| 2026-05-05 11:30 | 50.90046 | 4.48637 | 136 ft | 0 kts | 155° |
| 2026-05-05 13:14 | 50.90049 | 4.48635 | 135 ft | 3 kts | 155° |
| 2026-05-05 13:15 | 50.90073 | 4.48617 | 134 ft | 4 kts | 153° |
| 2026-05-05 13:15 | 50.90096 | 4.48595 | 133 ft | 4 kts | 137° |
| 2026-05-05 13:15 | 50.90107 | 4.48567 | 133 ft | 5 kts | 76° |
| 2026-05-05 13:15 | 50.90106 | 4.48560 | 133 ft | 1 kts | 65° |
| 2026-05-05 13:18 | 50.90109 | 4.48572 | 132 ft | 3 kts | 65° |
| 2026-05-05 13:19 | 50.90123 | 4.48621 | 133 ft | 7 kts | 66° |
| 2026-05-05 13:19 | 50.90149 | 4.48713 | 133 ft | 11 kts | 66° |
| 2026-05-05 13:19 | 50.90188 | 4.48849 | 133 ft | 16 kts | 65° |
| 2026-05-05 13:19 | 50.90237 | 4.49025 | 133 ft | 19 kts | 65° |
| 2026-05-05 13:20 | 50.90300 | 4.49237 | 133 ft | 23 kts | 63° |
| 2026-05-05 13:20 | 50.90368 | 4.49469 | 127 ft | 22 kts | 80° |
| 2026-05-05 13:20 | 50.90243 | 4.49505 | 132 ft | 24 kts | 195° |
| 2026-05-05 13:20 | 50.90079 | 4.49438 | 136 ft | 26 kts | 194° |
| 2026-05-05 13:21 | 50.89901 | 4.49365 | 142 ft | 28 kts | 194° |
| 2026-05-05 13:21 | 50.89706 | 4.49285 | 154 ft | 30 kts | 194° |
| 2026-05-05 13:21 | 50.89503 | 4.49165 | 165 ft | 33 kts | 193° |
| 2026-05-05 13:21 | 50.89276 | 4.49071 | 175 ft | 35 kts | 195° |
| 2026-05-05 13:22 | 50.89168 | 4.49028 | 182 ft | 14 kts | 171° |
| 2026-05-05 13:22 | 50.89153 | 4.49116 | 182 ft | 0 kts | 71° |
| 2026-05-05 13:24 | 50.89255 | 4.49559 | 182 ft | 91 kts | 70° |
| 2026-05-05 13:24 | 50.89579 | 4.50931 | 209 ft | 167 kts | 69° |
| 2026-05-05 13:24 | 50.89930 | 4.52611 | 1319 ft | 154 kts | 68° |
| 2026-05-05 13:24 | 50.90422 | 4.54071 | 2501 ft | 148 kts | 51° |
| 2026-05-05 13:25 | 50.91213 | 4.54967 | 3507 ft | 149 kts | 21° |
| 2026-05-05 13:25 | 50.92368 | 4.55191 | 3839 ft | 185 kts | 3° |
| 2026-05-05 13:25 | 50.93737 | 4.54983 | 4253 ft | 214 kts | 340° |
| 2026-05-05 13:25 | 50.94976 | 4.53389 | 4552 ft | 250 kts | 307° |
| 2026-05-05 13:26 | 50.95992 | 4.51035 | 5133 ft | 267 kts | 306° |
| 2026-05-05 13:26 | 50.97064 | 4.48568 | 5970 ft | 273 kts | 306° |
| 2026-05-05 13:26 | 50.98151 | 4.46059 | 6840 ft | 277 kts | 306° |
| 2026-05-05 13:26 | 50.99232 | 4.43562 | 7726 ft | 280 kts | 306° |
| 2026-05-05 13:27 | 51.00361 | 4.40962 | 8637 ft | 284 kts | 306° |
| 2026-05-05 13:27 | 51.01489 | 4.38362 | 9581 ft | 287 kts | 305° |
| 2026-05-05 13:27 | 51.02621 | 4.35749 | 10256 ft | 300 kts | 305° |
| 2026-05-05 13:27 | 51.03845 | 4.32922 | 10587 ft | 323 kts | 305° |
| 2026-05-05 13:28 | 51.05166 | 4.29868 | 10907 ft | 346 kts | 305° |
| 2026-05-05 13:28 | 51.06564 | 4.26620 | 11202 ft | 367 kts | 305° |
| 2026-05-05 13:28 | 51.08042 | 4.23190 | 11478 ft | 386 kts | 305° |
| 2026-05-05 13:28 | 51.09595 | 4.19586 | 11741 ft | 403 kts | 305° |
| 2026-05-05 13:29 | 51.11192 | 4.15871 | 12208 ft | 410 kts | 305° |
| 2026-05-05 13:29 | 51.12805 | 4.12109 | 12785 ft | 414 kts | 305° |
| 2026-05-05 13:29 | 51.14436 | 4.08299 | 13397 ft | 418 kts | 305° |
| 2026-05-05 13:29 | 51.16078 | 4.04462 | 13919 ft | 422 kts | 305° |
| 2026-05-05 13:30 | 51.17714 | 4.00627 | 14373 ft | 426 kts | 305° |
| 2026-05-05 13:30 | 51.19385 | 3.96709 | 14909 ft | 428 kts | 304° |
| 2026-05-05 13:30 | 51.21055 | 3.92786 | 15504 ft | 430 kts | 304° |
| 2026-05-05 13:30 | 51.22730 | 3.88811 | 15975 ft | 433 kts | 302° |
| 2026-05-05 13:31 | 51.24086 | 3.84528 | 16367 ft | 437 kts | 291° |
| 2026-05-05 13:31 | 51.25125 | 3.79954 | 16826 ft | 439 kts | 289° |
| 2026-05-05 13:31 | 51.26130 | 3.75332 | 17259 ft | 442 kts | 288° |
| 2026-05-05 13:31 | 51.27141 | 3.70676 | 17673 ft | 445 kts | 288° |
| 2026-05-05 13:32 | 51.28151 | 3.66052 | 18118 ft | 447 kts | 288° |
| 2026-05-05 13:32 | 51.29188 | 3.61305 | 18578 ft | 448 kts | 288° |
| 2026-05-05 13:32 | 51.30205 | 3.56650 | 18928 ft | 451 kts | 288° |
| 2026-05-05 13:32 | 51.31240 | 3.51911 | 19300 ft | 453 kts | 288° |
| 2026-05-05 13:33 | 51.32282 | 3.47139 | 19649 ft | 457 kts | 288° |
| 2026-05-05 13:33 | 51.33332 | 3.42319 | 19972 ft | 461 kts | 288° |
| 2026-05-05 13:33 | 51.34383 | 3.37473 | 20381 ft | 463 kts | 288° |
| 2026-05-05 13:33 | 51.35499 | 3.32618 | 20768 ft | 467 kts | 290° |
| 2026-05-05 13:34 | 51.36657 | 3.27750 | 21340 ft | 468 kts | 289° |
| 2026-05-05 13:34 | 51.37810 | 3.22894 | 21966 ft | 466 kts | 289° |
| 2026-05-05 13:34 | 51.38963 | 3.18017 | 22335 ft | 471 kts | 289° |
| 2026-05-05 13:34 | 51.40106 | 3.13162 | 22680 ft | 475 kts | 289° |
| 2026-05-05 13:35 | 51.41272 | 3.08203 | 23087 ft | 477 kts | 289° |
| 2026-05-05 13:35 | 51.42447 | 3.03219 | 23534 ft | 479 kts | 289° |
| 2026-05-05 13:35 | 51.43625 | 2.98209 | 23845 ft | 481 kts | 289° |
| 2026-05-05 13:35 | 51.44798 | 2.93194 | 23943 ft | 481 kts | 289° |
| 2026-05-05 13:36 | 51.45970 | 2.88180 | 23949 ft | 482 kts | 289° |
| 2026-05-05 13:36 | 51.47142 | 2.83141 | 23943 ft | 481 kts | 289° |
| 2026-05-05 13:36 | 51.48317 | 2.78096 | 23935 ft | 483 kts | 289° |
| 2026-05-05 13:36 | 51.49475 | 2.73121 | 23931 ft | 482 kts | 289° |
| 2026-05-05 13:37 | 51.50639 | 2.68093 | 23929 ft | 481 kts | 289° |
| 2026-05-05 13:37 | 51.51798 | 2.63070 | 23932 ft | 481 kts | 289° |
| 2026-05-05 13:37 | 51.52958 | 2.58025 | 23937 ft | 481 kts | 289° |
| 2026-05-05 13:37 | 51.54119 | 2.52973 | 23948 ft | 483 kts | 289° |
| 2026-05-05 13:38 | 51.55279 | 2.47924 | 23951 ft | 481 kts | 288° |
| 2026-05-05 13:38 | 51.56428 | 2.42890 | 23940 ft | 480 kts | 289° |
| 2026-05-05 13:38 | 51.57579 | 2.37846 | 23939 ft | 481 kts | 289° |
| 2026-05-05 13:38 | 51.58716 | 2.32856 | 23941 ft | 481 kts | 289° |
| 2026-05-05 13:39 | 51.59866 | 2.27817 | 23941 ft | 479 kts | 289° |
| 2026-05-05 13:39 | 51.61011 | 2.22784 | 23951 ft | 478 kts | 288° |
| 2026-05-05 13:39 | 51.62152 | 2.17755 | 23952 ft | 480 kts | 288° |
| 2026-05-05 13:39 | 51.63291 | 2.12717 | 23951 ft | 480 kts | 288° |
| 2026-05-05 13:40 | 51.64428 | 2.07672 | 23948 ft | 478 kts | 288° |
| 2026-05-05 13:40 | 51.65559 | 2.02633 | 23952 ft | 479 kts | 288° |
| 2026-05-05 13:40 | 51.66686 | 1.97593 | 23956 ft | 478 kts | 288° |
| 2026-05-05 13:40 | 51.67814 | 1.92557 | 23955 ft | 479 kts | 288° |
| 2026-05-05 13:41 | 51.68915 | 1.87605 | 23957 ft | 477 kts | 288° |
| 2026-05-05 13:41 | 51.70033 | 1.82557 | 23953 ft | 477 kts | 288° |
| 2026-05-05 13:41 | 51.71146 | 1.77535 | 23965 ft | 476 kts | 288° |
| 2026-05-05 13:41 | 51.72258 | 1.72510 | 23969 ft | 476 kts | 288° |
| 2026-05-05 13:42 | 51.73359 | 1.67517 | 23812 ft | 465 kts | 288° |
| 2026-05-05 13:42 | 51.74234 | 1.62408 | 23483 ft | 476 kts | 279° |
| 2026-05-05 13:42 | 51.74494 | 1.57118 | 23147 ft | 470 kts | 268° |
| 2026-05-05 13:42 | 51.74256 | 1.51911 | 22236 ft | 461 kts | 262° |
| 2026-05-05 13:43 | 51.73896 | 1.46851 | 21738 ft | 461 kts | 262° |
| 2026-05-05 13:43 | 51.73532 | 1.41717 | 21399 ft | 460 kts | 262° |
| 2026-05-05 13:43 | 51.73184 | 1.36625 | 20938 ft | 451 kts | 263° |
| 2026-05-05 13:43 | 51.72855 | 1.31650 | 20379 ft | 441 kts | 263° |
| 2026-05-05 13:44 | 51.72534 | 1.26803 | 19807 ft | 431 kts | 263° |
| 2026-05-05 13:44 | 51.72217 | 1.22042 | 19251 ft | 424 kts | 263° |
| 2026-05-05 13:44 | 51.71901 | 1.17333 | 18707 ft | 422 kts | 263° |
| 2026-05-05 13:44 | 51.71586 | 1.12648 | 18117 ft | 419 kts | 263° |
| 2026-05-05 13:45 | 51.71273 | 1.08002 | 17435 ft | 414 kts | 263° |
| 2026-05-05 13:45 | 51.70966 | 1.03459 | 16870 ft | 412 kts | 263° |
| 2026-05-05 13:45 | 51.70656 | 0.98882 | 16351 ft | 410 kts | 264° |
| 2026-05-05 13:45 | 51.70345 | 0.94346 | 15866 ft | 405 kts | 263° |
| 2026-05-05 13:46 | 51.70035 | 0.89856 | 15309 ft | 402 kts | 263° |
| 2026-05-05 13:46 | 51.69723 | 0.85393 | 14713 ft | 399 kts | 263° |
| 2026-05-05 13:46 | 51.69411 | 0.80968 | 14124 ft | 396 kts | 263° |
| 2026-05-05 13:46 | 51.69100 | 0.76577 | 13515 ft | 392 kts | 263° |
| 2026-05-05 13:47 | 51.68791 | 0.72231 | 12890 ft | 389 kts | 263° |
| 2026-05-05 13:47 | 51.68482 | 0.67921 | 12289 ft | 384 kts | 264° |
| 2026-05-05 13:47 | 51.68180 | 0.63712 | 11748 ft | 371 kts | 264° |
| 2026-05-05 13:47 | 51.67894 | 0.59734 | 11384 ft | 352 kts | 264° |
| 2026-05-05 13:48 | 51.67622 | 0.55945 | 11072 ft | 331 kts | 264° |
| 2026-05-05 13:48 | 51.67364 | 0.52357 | 10725 ft | 314 kts | 264° |
| 2026-05-05 13:48 | 51.67116 | 0.48943 | 10409 ft | 300 kts | 264° |
| 2026-05-05 13:48 | 51.66878 | 0.45662 | 10106 ft | 292 kts | 264° |
| 2026-05-05 13:49 | 51.66640 | 0.42418 | 9621 ft | 291 kts | 264° |
| 2026-05-05 13:49 | 51.66402 | 0.39179 | 9085 ft | 290 kts | 264° |
| 2026-05-05 13:49 | 51.66165 | 0.35974 | 8634 ft | 288 kts | 264° |
| 2026-05-05 13:49 | 51.65927 | 0.32779 | 8162 ft | 286 kts | 264° |
| 2026-05-05 13:50 | 51.65693 | 0.29646 | 7703 ft | 285 kts | 264° |
| 2026-05-05 13:50 | 51.65456 | 0.26492 | 7248 ft | 284 kts | 264° |
| 2026-05-05 13:50 | 51.65222 | 0.23356 | 6991 ft | 279 kts | 264° |
| 2026-05-05 13:50 | 51.64996 | 0.20273 | 6944 ft | 277 kts | 264° |
| 2026-05-05 13:51 | 51.64766 | 0.17197 | 6947 ft | 277 kts | 264° |
| 2026-05-05 13:51 | 51.64539 | 0.14145 | 6948 ft | 277 kts | 265° |
| 2026-05-05 13:51 | 51.64367 | 0.11025 | 6967 ft | 278 kts | 266° |
| 2026-05-05 13:51 | 51.64208 | 0.07959 | 6965 ft | 277 kts | 266° |
| 2026-05-05 13:52 | 51.64046 | 0.04868 | 6965 ft | 277 kts | 266° |
| 2026-05-05 13:52 | 51.63882 | 0.01817 | 6966 ft | 277 kts | 266° |
| 2026-05-05 13:52 | 51.63712 | -0.01275 | 6967 ft | 278 kts | 266° |
| 2026-05-05 13:52 | 51.63542 | -0.04370 | 6962 ft | 277 kts | 266° |
| 2026-05-05 13:53 | 51.63370 | -0.07466 | 6985 ft | 277 kts | 266° |
| 2026-05-05 13:53 | 51.63197 | -0.10550 | 6990 ft | 277 kts | 265° |
| 2026-05-05 13:53 | 51.63023 | -0.13648 | 6998 ft | 277 kts | 265° |
| 2026-05-05 13:53 | 51.62847 | -0.16732 | 6998 ft | 277 kts | 265° |
| 2026-05-05 13:54 | 51.62672 | -0.19825 | 6996 ft | 277 kts | 265° |
| 2026-05-05 13:54 | 51.62496 | -0.22910 | 6993 ft | 277 kts | 265° |
| 2026-05-05 13:54 | 51.62320 | -0.25997 | 6993 ft | 277 kts | 265° |
| 2026-05-05 13:54 | 51.62202 | -0.28048 | 7004 ft | 277 kts | 265° |
| 2026-05-05 13:55 | 51.61965 | -0.32136 | 7021 ft | 277 kts | 266° |
| 2026-05-05 13:55 | 51.61786 | -0.35225 | 7000 ft | 277 kts | 265° |
| 2026-05-05 13:55 | 51.61608 | -0.38309 | 7001 ft | 277 kts | 265° |
| 2026-05-05 13:55 | 51.61428 | -0.41402 | 7001 ft | 278 kts | 265° |
| 2026-05-05 13:56 | 51.61247 | -0.44470 | 6987 ft | 274 kts | 265° |
| 2026-05-05 13:56 | 51.61128 | -0.46483 | 6740 ft | 272 kts | 265° |
| 2026-05-05 13:56 | 51.60947 | -0.49512 | 6256 ft | 273 kts | 265° |
| 2026-05-05 13:56 | 51.60765 | -0.52557 | 5767 ft | 274 kts | 265° |
| 2026-05-05 13:57 | 51.60585 | -0.55582 | 5388 ft | 270 kts | 265° |
| 2026-05-05 13:57 | 51.60342 | -0.59592 | 5014 ft | 272 kts | 266° |
| 2026-05-05 13:57 | 51.60158 | -0.62613 | 4967 ft | 272 kts | 266° |
| 2026-05-05 13:57 | 51.60034 | -0.64618 | 4965 ft | 268 kts | 266° |
| 2026-05-05 13:58 | 51.59850 | -0.67621 | 4490 ft | 268 kts | 266° |
| 2026-05-05 13:58 | 51.59669 | -0.70580 | 3996 ft | 272 kts | 266° |
| 2026-05-05 13:58 | 51.59483 | -0.73607 | 3630 ft | 271 kts | 266° |
| 2026-05-05 13:58 | 51.59292 | -0.76590 | 3318 ft | 266 kts | 264° |
| 2026-05-05 13:59 | 51.57145 | -0.81134 | 2960 ft | 270 kts | 201° |
| 2026-05-05 13:59 | 51.55298 | -0.81451 | 2964 ft | 266 kts | 169° |
| 2026-05-05 14:00 | 51.51948 | -0.80147 | 2976 ft | 237 kts | 167° |
| 2026-05-05 14:00 | 51.50347 | -0.79680 | 2986 ft | 238 kts | 165° |
| 2026-05-05 14:00 | 51.48924 | -0.78482 | 2982 ft | 229 kts | 134° |
| 2026-05-05 14:00 | 51.47942 | -0.76628 | 2965 ft | 208 kts | 116° |
| 2026-05-05 14:01 | 51.47567 | -0.74466 | 2970 ft | 202 kts | 91° |
| 2026-05-05 14:01 | 51.47564 | -0.72325 | 3013 ft | 179 kts | 85° |
| 2026-05-05 14:01 | 51.47630 | -0.70389 | 2843 ft | 171 kts | 84° |
| 2026-05-05 14:01 | 51.47670 | -0.68514 | 2612 ft | 166 kts | 85° |
| 2026-05-05 14:02 | 51.47684 | -0.66710 | 2381 ft | 158 kts | 86° |
| 2026-05-05 14:02 | 51.47692 | -0.64998 | 2201 ft | 145 kts | 86° |
| 2026-05-05 14:02 | 51.47699 | -0.63462 | 2000 ft | 136 kts | 85° |
| 2026-05-05 14:02 | 51.47704 | -0.61960 | 1806 ft | 134 kts | 86° |
| 2026-05-05 14:03 | 51.47709 | -0.60477 | 1617 ft | 134 kts | 85° |
| 2026-05-05 14:03 | 51.47715 | -0.58983 | 1458 ft | 133 kts | 86° |
| 2026-05-05 14:03 | 51.47720 | -0.57498 | 1241 ft | 134 kts | 86° |
| 2026-05-05 14:03 | 51.47726 | -0.56012 | 1059 ft | 134 kts | 86° |
| 2026-05-05 14:04 | 51.47731 | -0.54525 | 874 ft | 133 kts | 86° |
| 2026-05-05 14:04 | 51.47736 | -0.53039 | 697 ft | 133 kts | 86° |
| 2026-05-05 14:04 | 51.47742 | -0.51575 | 500 ft | 130 kts | 86° |
| 2026-05-05 14:04 | 51.47740 | -0.50110 | 330 ft | 131 kts | 88° |
| 2026-05-05 14:05 | 51.47749 | -0.48641 | 127 ft | 132 kts | 86° |
| 2026-05-05 14:05 | 51.47756 | -0.47297 | 91 ft | 96 kts | 91° |
| 2026-05-05 14:05 | 51.47758 | -0.46522 | 96 ft | 55 kts | 89° |
| 2026-05-05 14:05 | 51.47695 | -0.46142 | 92 ft | 32 kts | 141° |
| 2026-05-05 14:06 | 51.47603 | -0.46073 | 92 ft | 10 kts | 214° |
| 2026-05-05 14:06 | 51.47592 | -0.46189 | 92 ft | 12 kts | 269° |
| 2026-05-05 14:06 | 51.47592 | -0.46338 | 92 ft | 14 kts | 270° |
| 2026-05-05 14:06 | 51.47592 | -0.46511 | 92 ft | 17 kts | 270° |
| 2026-05-05 14:07 | 51.47592 | -0.46707 | 92 ft | 19 kts | 269° |
| 2026-05-05 14:07 | 51.47584 | -0.46924 | 94 ft | 20 kts | 266° |
| 2026-05-05 14:07 | 51.47582 | -0.47160 | 93 ft | 22 kts | 269° |
| 2026-05-05 14:07 | 51.47580 | -0.47416 | 94 ft | 24 kts | 269° |
| 2026-05-05 14:08 | 51.47580 | -0.47688 | 93 ft | 26 kts | 270° |
| 2026-05-05 14:08 | 51.47579 | -0.47982 | 95 ft | 27 kts | 269° |
| 2026-05-05 14:08 | 51.47578 | -0.48296 | 95 ft | 29 kts | 270° |
| 2026-05-05 14:08 | 51.47577 | -0.48626 | 92 ft | 25 kts | 269° |
| 2026-05-05 14:09 | 51.47575 | -0.48812 | 92 ft | 4 kts | 269° |
| 2026-05-05 14:09 | 51.47569 | -0.48904 | 94 ft | 12 kts | 252° |
| 2026-05-05 14:09 | 51.47499 | -0.48904 | 93 ft | 14 kts | 117° |
| 2026-05-05 14:09 | 51.47432 | -0.48832 | 92 ft | 13 kts | 181° |
| 2026-05-05 14:10 | 51.47408 | -0.48832 | 92 ft | 0 kts | 179° |
| 2026-05-05 14:10 | 51.47407 | -0.48832 | 92 ft | 0 kts | 180° |